createdAt,value
2023-02-19T00:01:53.578Z,102093.00
2023-02-19T00:04:24.719Z,102092.22
2023-02-19T00:06:52.419Z,102090.50
2023-02-19T00:09:20.439Z,102088.78
2023-02-19T00:11:48.500Z,102085.28
2023-02-19T00:14:20.072Z,102081.81
2023-02-19T00:16:47.846Z,102081.97
2023-02-19T00:19:18.768Z,102082.03
2023-02-19T00:21:46.105Z,102082.97
2023-02-19T00:24:14.911Z,102082.16
2023-02-19T00:26:43.778Z,102083.97
2023-02-19T00:29:18.036Z,102078.72
2023-02-19T00:31:46.625Z,102084.16
2023-02-19T00:34:14.905Z,102080.63
2023-02-19T00:36:43.264Z,102083.31
2023-02-19T00:39:15.670Z,102081.63
2023-02-19T00:41:44.272Z,102076.34
2023-02-19T00:44:13.211Z,102078.25
2023-02-19T00:46:44.165Z,102082.75
2023-02-19T00:49:19.765Z,102069.56
2023-02-19T00:51:50.561Z,102076.63
2023-02-19T00:54:18.055Z,102078.41
2023-02-19T00:56:46.453Z,102075.81
2023-02-19T00:59:14.118Z,102078.50
2023-02-19T01:01:44.538Z,102074.97
2023-02-19T01:04:12.654Z,102073.22
2023-02-19T01:06:39.761Z,102082.06
2023-02-19T01:09:07.907Z,102075.03
2023-02-19T01:11:36.065Z,102076.81
2023-02-19T01:14:05.075Z,102076.81
2023-02-19T01:16:32.702Z,102073.31
2023-02-19T01:19:00.360Z,102076.88
2023-02-19T01:21:29.804Z,102070.72
2023-02-19T01:23:58.386Z,102068.13
2023-02-19T01:26:30.591Z,102063.75
2023-02-19T01:28:59.848Z,102057.56
2023-02-19T01:31:28.235Z,102059.38
2023-02-19T01:33:59.040Z,102054.06
2023-02-19T01:36:27.650Z,102056.78
2023-02-19T01:38:55.228Z,102052.47
2023-02-19T01:41:25.781Z,102054.31
2023-02-19T01:44:01.871Z,102051.66
2023-02-19T01:46:37.790Z,102053.44
2023-02-19T01:49:32.252Z,102053.53
2023-02-19T01:52:16.194Z,102054.47
2023-02-19T01:54:45.807Z,102049.22
2023-02-19T01:57:21.636Z,102049.25
2023-02-19T01:59:55.260Z,102049.34
2023-02-19T02:02:25.211Z,102046.75
2023-02-19T02:04:52.574Z,102050.25
2023-02-19T02:07:38.384Z,102037.91
2023-02-19T02:10:21.842Z,102036.19
2023-02-19T02:12:51.669Z,102032.66
2023-02-19T02:15:19.948Z,102030.91
2023-02-19T02:17:58.103Z,102030.94
2023-02-19T02:20:52.066Z,102031.00
2023-02-19T02:23:31.964Z,102024.91
2023-02-19T02:26:28.913Z,102030.31
2023-02-19T02:29:39.513Z,102033.94
2023-02-19T02:32:16.173Z,102028.69
2023-02-19T02:34:54.546Z,102014.59
2023-02-19T02:37:23.899Z,102018.19
2023-02-19T02:39:54.068Z,102009.44
2023-02-19T02:42:28.966Z,102008.59
2023-02-19T02:45:36.128Z,102016.63
2023-02-19T02:48:36.908Z,102010.47
2023-02-19T02:51:14.429Z,102014.09
2023-02-19T02:54:13.229Z,102017.63
2023-02-19T02:56:43.513Z,102015.84
2023-02-19T02:59:15.019Z,102009.72
2023-02-19T03:02:11.087Z,102008.88
2023-02-19T03:05:23.031Z,102003.69
2023-02-19T03:08:00.587Z,101998.44
2023-02-19T03:10:49.191Z,102005.56
2023-02-19T03:13:41.663Z,101997.63
2023-02-19T03:16:35.641Z,101997.63
2023-02-19T03:19:20.664Z,101987.00
2023-02-19T03:22:20.110Z,101993.25
2023-02-19T03:25:17.832Z,101990.66
2023-02-19T03:27:48.200Z,101984.47
2023-02-19T03:30:29.704Z,101985.41
2023-02-19T03:33:15.649Z,101987.19
2023-02-19T03:36:05.885Z,101989.03
2023-02-19T03:38:40.966Z,101989.09
2023-02-19T03:41:33.935Z,101990.03
2023-02-19T03:44:24.848Z,101988.34
2023-02-19T03:47:19.532Z,101986.56
2023-02-19T03:50:00.527Z,101984.94
2023-02-19T03:53:07.247Z,101989.41
2023-02-19T03:55:54.851Z,101999.19
2023-02-19T03:58:43.505Z,101998.34
2023-02-19T04:01:19.574Z,101993.94
2023-02-19T04:04:09.631Z,101989.56
2023-02-19T04:06:39.178Z,101995.72
2023-02-19T04:09:10.086Z,101993.97
2023-02-19T04:11:39.429Z,101994.00
2023-02-19T04:14:26.840Z,101989.63
2023-02-19T04:17:01.353Z,101988.75
2023-02-19T04:19:32.924Z,101987.06
2023-02-19T04:22:02.069Z,101989.75
2023-02-19T04:24:39.288Z,101992.50
2023-02-19T04:27:07.322Z,102002.22
2023-02-19T04:29:34.774Z,101995.22
2023-02-19T04:32:02.046Z,102000.56
2023-02-19T04:34:29.628Z,101993.50
2023-02-19T04:36:56.697Z,101999.75
2023-02-19T04:39:23.714Z,102002.41
2023-02-19T04:41:50.780Z,101996.28
2023-02-19T04:44:17.816Z,101998.13
2023-02-19T04:46:44.847Z,101999.94
2023-02-19T04:49:11.994Z,101990.22
2023-02-19T04:51:40.003Z,101981.41
2023-02-19T04:54:07.586Z,101982.38
2023-02-19T04:56:34.746Z,101982.41
2023-02-19T04:59:01.874Z,101977.16
2023-02-19T05:01:29.012Z,101970.16
2023-02-19T05:03:55.996Z,101985.16
2023-02-19T05:06:23.011Z,101981.66
2023-02-19T05:08:50.107Z,101976.38
2023-02-19T05:11:17.956Z,101976.38
2023-02-19T05:13:45.541Z,101982.63
2023-02-19T05:16:16.205Z,101982.63
2023-02-19T05:18:46.857Z,101974.69
2023-02-19T05:21:16.854Z,101973.81
2023-02-19T05:23:44.574Z,101966.78
2023-02-19T05:26:21.736Z,101969.44
2023-02-19T05:28:53.378Z,101969.47
2023-02-19T05:31:21.358Z,101963.31
2023-02-19T05:33:51.475Z,101973.97
2023-02-19T05:36:21.406Z,101977.56
2023-02-19T05:38:55.906Z,101973.19
2023-02-19T05:41:29.355Z,101968.88
2023-02-19T05:43:58.255Z,101972.47
2023-02-19T05:46:32.394Z,101970.78
2023-02-19T05:48:59.846Z,101970.78
2023-02-19T05:51:27.934Z,101970.84
2023-02-19T05:53:56.544Z,101976.19
2023-02-19T05:56:26.554Z,101969.19
2023-02-19T05:58:54.922Z,101967.41
2023-02-19T06:01:26.366Z,101969.25
2023-02-19T06:03:57.246Z,101966.63
2023-02-19T06:06:26.503Z,101964.00
2023-02-19T06:08:54.558Z,101962.25
2023-02-19T06:11:22.017Z,101965.78
2023-02-19T06:13:50.522Z,101965.81
2023-02-19T06:16:18.809Z,101968.47
2023-02-19T06:18:46.372Z,101962.38
2023-02-19T06:21:14.251Z,101963.34
2023-02-19T06:23:41.896Z,101957.19
2023-02-19T06:26:20.430Z,101963.38
2023-02-19T06:28:49.467Z,101958.13
2023-02-19T06:31:18.384Z,101963.44
2023-02-19T06:33:46.079Z,101964.38
2023-02-19T06:36:16.190Z,101962.69
2023-02-19T06:38:43.630Z,101958.25
2023-02-19T06:41:12.394Z,101959.97
2023-02-19T06:43:39.594Z,101968.75
2023-02-19T06:46:07.858Z,101970.56
2023-02-19T06:48:35.873Z,101966.28
2023-02-19T06:51:03.502Z,101966.44
2023-02-19T06:53:30.738Z,101962.97
2023-02-19T06:56:08.051Z,101962.94
2023-02-19T06:58:35.543Z,101963.75
2023-02-19T07:01:03.283Z,101972.47
2023-02-19T07:03:30.458Z,101976.97
2023-02-19T07:05:59.836Z,101977.88
2023-02-19T07:08:29.307Z,101987.59
2023-02-19T07:10:58.909Z,101977.94
2023-02-19T07:13:27.295Z,101985.81
2023-02-19T07:16:11.381Z,101977.91
2023-02-19T07:18:40.574Z,101976.97
2023-02-19T07:21:13.986Z,101973.44
2023-02-19T07:23:42.896Z,101969.84
2023-02-19T07:26:17.319Z,101976.78
2023-02-19T07:28:46.399Z,101979.38
2023-02-19T07:31:15.628Z,101972.28
2023-02-19T07:33:44.709Z,101969.56
2023-02-19T07:36:13.471Z,101966.84
2023-02-19T07:38:40.604Z,101962.47
2023-02-19T07:41:08.045Z,101959.75
2023-02-19T07:43:37.824Z,101961.38
2023-02-19T07:46:08.156Z,101963.09
2023-02-19T07:48:36.735Z,101967.41
2023-02-19T07:51:06.101Z,101960.25
2023-02-19T07:53:35.584Z,101965.50
2023-02-19T07:56:08.209Z,101969.97
2023-02-19T07:58:36.034Z,101967.19
2023-02-19T08:01:17.800Z,101973.25
2023-02-19T08:03:46.231Z,101965.31
2023-02-19T08:06:14.167Z,101972.22
2023-02-19T08:08:41.842Z,101969.47
2023-02-19T08:11:28.684Z,101966.72
2023-02-19T08:13:55.808Z,101956.88
2023-02-19T08:16:40.824Z,101953.22
2023-02-19T08:19:10.145Z,101938.06
2023-02-19T08:21:37.311Z,101945.00
2023-02-19T08:24:04.852Z,101940.44
2023-02-19T08:26:33.287Z,101960.63
2023-02-19T08:29:00.505Z,101964.03
2023-02-19T08:31:27.864Z,101975.44
2023-02-19T08:33:55.096Z,101963.97
2023-02-19T08:36:23.099Z,101967.38
2023-02-19T08:38:50.222Z,101975.19
2023-02-19T08:41:17.718Z,101973.38
2023-02-19T08:43:45.071Z,101957.41
2023-02-19T08:46:12.760Z,101960.84
2023-02-19T08:48:40.710Z,101968.75
2023-02-19T08:51:11.925Z,101963.31
2023-02-19T08:53:41.101Z,101965.91
2023-02-19T08:56:14.488Z,101962.19
2023-02-19T08:58:42.284Z,101950.59
2023-02-19T09:01:15.594Z,101954.84
2023-02-19T09:03:43.432Z,101959.94
2023-02-19T09:06:19.579Z,101948.28
2023-02-19T09:08:47.254Z,101927.78
2023-02-19T09:11:15.220Z,101933.75
2023-02-19T09:13:43.293Z,101940.69
2023-02-19T09:16:11.874Z,101929.88
2023-02-19T09:18:39.566Z,101932.31
2023-02-19T09:21:07.341Z,101931.31
2023-02-19T09:23:36.615Z,101920.47
2023-02-19T09:26:07.706Z,101934.44
2023-02-19T09:28:35.960Z,101923.69
2023-02-19T09:31:08.769Z,101930.56
2023-02-19T09:33:36.366Z,101919.78
2023-02-19T09:36:04.612Z,101923.13
2023-02-19T09:38:31.762Z,101932.69
2023-02-19T09:41:00.214Z,101931.66
2023-02-19T09:43:30.030Z,101921.75
2023-02-19T09:46:07.890Z,101923.28
2023-02-19T09:48:35.015Z,101912.44
2023-02-19T09:51:03.239Z,101923.69
2023-02-19T09:53:41.330Z,101921.72
2023-02-19T09:56:09.829Z,101927.56
2023-02-19T09:58:52.923Z,101932.94
2023-02-19T10:01:20.682Z,101921.16
2023-02-19T10:03:49.206Z,101918.28
2023-02-19T10:06:24.248Z,101918.97
2023-02-19T10:08:57.776Z,101907.25
2023-02-19T10:11:26.306Z,101897.22
2023-02-19T10:14:13.434Z,101901.34
2023-02-19T10:16:44.012Z,101907.31
2023-02-19T10:19:13.498Z,101902.69
2023-02-19T10:21:42.046Z,101901.59
2023-02-19T10:24:22.229Z,101899.50
2023-02-19T10:26:50.842Z,101896.63
2023-02-19T10:29:20.237Z,101897.22
2023-02-19T10:31:48.097Z,101887.22
2023-02-19T10:34:22.952Z,101893.19
2023-02-19T10:36:51.703Z,101884.03
2023-02-19T10:39:22.122Z,101886.50
2023-02-19T10:41:51.493Z,101879.19
2023-02-19T10:44:24.432Z,101877.13
2023-02-19T10:46:55.399Z,101870.53
2023-02-19T10:49:44.139Z,101873.00
2023-02-19T10:52:18.482Z,101869.31
2023-02-19T10:54:46.732Z,101873.47
2023-02-19T10:57:21.268Z,101878.47
2023-02-19T11:00:01.284Z,101879.97
2023-02-19T11:02:31.377Z,101868.97
2023-02-19T11:05:16.656Z,101867.75
2023-02-19T11:07:56.763Z,101861.53
2023-02-19T11:10:42.493Z,101855.66
2023-02-19T11:13:25.080Z,101852.75
2023-02-19T11:15:54.934Z,101849.72
2023-02-19T11:18:33.199Z,101834.25
2023-02-19T11:21:05.484Z,101834.97
2023-02-19T11:23:35.962Z,101827.41
2023-02-19T11:26:21.439Z,101819.88
2023-02-19T11:28:58.606Z,101818.75
2023-02-19T11:31:27.590Z,101824.66
2023-02-19T11:34:04.424Z,101819.91
2023-02-19T11:36:37.373Z,101820.59
2023-02-19T11:39:17.130Z,101805.22
2023-02-19T11:42:15.209Z,101816.44
2023-02-19T11:44:55.311Z,101805.41
2023-02-19T11:48:09.490Z,101803.44
2023-02-19T11:50:54.311Z,101794.34
2023-02-19T11:53:29.138Z,101792.44
2023-02-19T11:56:08.485Z,101789.38
2023-02-19T11:59:01.325Z,101779.19
2023-02-19T12:02:05.780Z,101785.72
2023-02-19T12:05:19.955Z,101770.25
2023-02-19T12:08:27.676Z,101766.28
2023-02-19T12:11:27.338Z,101766.06
2023-02-19T12:14:25.420Z,101754.78
2023-02-19T12:16:56.005Z,101760.47
2023-02-19T12:19:55.651Z,101759.63
2023-02-19T12:22:43.330Z,101747.56
2023-02-19T12:25:34.065Z,101748.59
2023-02-19T12:28:22.750Z,101748.22
2023-02-19T12:30:55.636Z,101740.44
2023-02-19T12:33:59.737Z,101738.06
2023-02-19T12:36:35.746Z,101733.72
2023-02-19T12:39:44.335Z,101719.66
2023-02-19T12:42:56.240Z,101715.03
2023-02-19T12:45:54.833Z,101708.06
2023-02-19T12:48:59.136Z,101707.31
2023-02-19T12:51:42.768Z,101702.38
2023-02-19T12:54:35.170Z,101704.28
2023-02-19T12:57:09.896Z,101697.38
2023-02-19T12:59:47.417Z,101686.88
2023-02-19T13:02:27.028Z,101689.31
2023-02-19T13:05:41.442Z,101691.38
2023-02-19T13:09:03.459Z,101681.16
2023-02-19T13:11:39.774Z,101673.50
2023-02-19T13:14:16.573Z,101673.16
2023-02-19T13:16:51.558Z,101670.72
2023-02-19T13:19:18.929Z,101661.50
2023-02-19T13:22:14.008Z,101653.88
2023-02-19T13:24:43.381Z,101663.22
2023-02-19T13:27:54.472Z,101653.81
2023-02-19T13:30:58.323Z,101644.72
2023-02-19T13:33:48.881Z,101639.81
2023-02-19T13:36:24.453Z,101630.69
2023-02-19T13:38:52.165Z,101631.56
2023-02-19T13:41:30.995Z,101625.41
2023-02-19T13:44:05.038Z,101626.19
2023-02-19T13:46:38.760Z,101625.91
2023-02-19T13:49:31.615Z,101622.81
2023-02-19T13:52:04.315Z,101615.25
2023-02-19T13:54:36.033Z,101617.94
2023-02-19T13:57:18.164Z,101618.09
2023-02-19T13:59:46.761Z,101623.09
2023-02-19T14:02:22.966Z,101623.22
2023-02-19T14:05:11.292Z,101614.69
2023-02-19T14:07:55.597Z,101607.00
2023-02-19T14:11:02.654Z,101606.63
2023-02-19T14:13:51.115Z,101603.41
2023-02-19T14:16:52.529Z,101615.22
2023-02-19T14:19:51.600Z,101612.03
2023-02-19T14:22:52.868Z,101616.34
2023-02-19T14:25:34.858Z,101616.03
2023-02-19T14:28:14.855Z,101602.94
2023-02-19T14:30:57.414Z,101607.25
2023-02-19T14:33:33.379Z,101599.94
2023-02-19T14:36:32.522Z,101601.56
2023-02-19T14:39:13.676Z,101604.25
2023-02-19T14:41:46.546Z,101599.72
2023-02-19T14:44:27.899Z,101601.44
2023-02-19T14:47:03.650Z,101594.56
2023-02-19T14:49:50.254Z,101599.38
2023-02-19T14:52:28.987Z,101587.19
2023-02-19T14:55:20.703Z,101588.25
2023-02-19T14:57:50.719Z,101594.91
2023-02-19T15:00:40.216Z,101588.97
2023-02-19T15:03:48.976Z,101580.44
2023-02-19T15:06:19.604Z,101591.59
2023-02-19T15:08:54.862Z,101592.84
2023-02-19T15:11:26.361Z,101599.41
2023-02-19T15:14:03.431Z,101590.66
2023-02-19T15:16:36.011Z,101594.50
2023-02-19T15:19:08.623Z,101592.00
2023-02-19T15:21:41.669Z,101589.50
2023-02-19T15:24:08.963Z,101592.41
2023-02-19T15:26:41.595Z,101591.69
2023-02-19T15:29:18.964Z,101589.19
2023-02-19T15:31:58.941Z,101584.09
2023-02-19T15:34:29.275Z,101586.13
2023-02-19T15:37:09.400Z,101576.44
2023-02-19T15:39:44.729Z,101579.41
2023-02-19T15:42:20.077Z,101579.59
2023-02-19T15:45:00.395Z,101583.34
2023-02-19T15:47:39.852Z,101581.72
2023-02-19T15:50:23.912Z,101572.13
2023-02-19T15:53:01.682Z,101572.31
2023-02-19T15:55:33.254Z,101566.25
2023-02-19T15:58:20.650Z,101568.16
2023-02-19T16:00:57.970Z,101573.72
2023-02-19T16:03:28.492Z,101572.97
2023-02-19T16:06:11.471Z,101577.56
2023-02-19T16:08:44.385Z,101568.84
2023-02-19T16:11:23.685Z,101572.56
2023-02-19T16:13:51.964Z,101578.25
2023-02-19T16:16:27.678Z,101601.66
2023-02-19T16:18:54.833Z,101596.47
2023-02-19T16:21:25.169Z,101596.66
2023-02-19T16:24:04.042Z,101588.69
2023-02-19T16:26:42.840Z,101592.63
2023-02-19T16:29:36.497Z,101591.06
2023-02-19T16:32:07.974Z,101596.81
2023-02-19T16:34:42.949Z,101606.09
2023-02-19T16:37:58.870Z,101606.38
2023-02-19T16:40:54.383Z,101607.78
2023-02-19T16:43:31.583Z,101596.53
2023-02-19T16:46:00.136Z,101595.06
2023-02-19T16:48:27.388Z,101598.00
2023-02-19T16:50:54.934Z,101609.09
2023-02-19T16:53:25.329Z,101612.94
2023-02-19T16:55:52.727Z,101617.78
2023-02-19T16:58:23.604Z,101636.94
2023-02-19T17:00:53.529Z,101647.91
2023-02-19T17:03:25.058Z,101654.50
2023-02-19T17:05:53.233Z,101659.34
2023-02-19T17:08:34.042Z,101666.88
2023-02-19T17:11:04.612Z,101672.59
2023-02-19T17:13:32.220Z,101676.47
2023-02-19T17:16:00.133Z,101681.19
2023-02-19T17:18:27.970Z,101671.75
2023-02-19T17:21:05.972Z,101677.28
2023-02-19T17:23:33.031Z,101690.16
2023-02-19T17:26:00.207Z,101684.25
2023-02-19T17:28:27.258Z,101689.88
2023-02-19T17:30:54.463Z,101706.28
2023-02-19T17:33:21.621Z,101711.00
2023-02-19T17:35:48.882Z,101716.63
2023-02-19T17:38:15.924Z,101723.16
2023-02-19T17:40:42.981Z,101719.88
2023-02-19T17:43:11.010Z,101722.78
2023-02-19T17:45:38.687Z,101731.91
2023-02-19T17:48:06.788Z,101742.91
2023-02-19T17:50:34.010Z,101750.31
2023-02-19T17:53:01.076Z,101752.38
2023-02-19T17:55:28.133Z,101754.34
2023-02-19T17:57:55.567Z,101766.16
2023-02-19T18:00:29.306Z,101765.41
2023-02-19T18:02:57.383Z,101766.59
2023-02-19T18:05:25.230Z,101766.81
2023-02-19T18:07:52.299Z,101766.09
2023-02-19T18:10:21.689Z,101766.34
2023-02-19T18:12:49.416Z,101764.81
2023-02-19T18:15:23.648Z,101766.78
2023-02-19T18:17:51.110Z,101768.72
2023-02-19T18:20:26.229Z,101776.03
2023-02-19T18:22:55.215Z,101777.13
2023-02-19T18:25:23.441Z,101776.41
2023-02-19T18:27:50.959Z,101772.06
2023-02-19T18:30:22.857Z,101766.94
2023-02-19T18:32:50.990Z,101778.72
2023-02-19T18:35:19.982Z,101782.41
2023-02-19T18:37:52.699Z,101785.31
2023-02-19T18:40:26.323Z,101788.19
2023-02-19T18:42:56.815Z,101799.16
2023-02-19T18:45:23.757Z,101800.34
2023-02-19T18:47:51.207Z,101803.28
2023-02-19T18:50:20.182Z,101812.44
2023-02-19T18:52:47.353Z,101818.88
2023-02-19T18:55:14.467Z,101824.28
2023-02-19T18:57:41.470Z,101835.06
2023-02-19T19:00:11.563Z,101836.13
2023-02-19T19:02:48.608Z,101845.22
2023-02-19T19:05:23.654Z,101843.59
2023-02-19T19:07:52.459Z,101853.63
2023-02-19T19:10:20.324Z,101850.06
2023-02-19T19:12:47.929Z,101858.16
2023-02-19T19:15:18.458Z,101861.81
2023-02-19T19:17:48.127Z,101856.59
2023-02-19T19:20:19.368Z,101854.94
2023-02-19T19:22:49.935Z,101847.94
2023-02-19T19:25:17.502Z,101844.53
2023-02-19T19:27:44.639Z,101850.91
2023-02-19T19:30:12.491Z,101849.38
2023-02-19T19:32:40.120Z,101852.19
2023-02-19T19:35:07.778Z,101858.53
2023-02-19T19:37:34.802Z,101857.78
2023-02-19T19:40:03.960Z,101864.16
2023-02-19T19:42:31.078Z,101872.38
2023-02-19T19:44:58.335Z,101863.63
2023-02-19T19:47:25.393Z,101861.94
2023-02-19T19:49:52.467Z,101878.22
2023-02-19T19:52:19.632Z,101891.53
2023-02-19T19:54:46.639Z,101894.72
2023-02-19T19:57:16.355Z,101904.91
2023-02-19T19:59:43.337Z,101905.63
2023-02-19T20:02:11.127Z,101914.56
2023-02-19T20:04:38.106Z,101932.09
2023-02-19T20:07:05.326Z,101921.63
2023-02-19T20:09:32.409Z,101928.19
2023-02-19T20:11:59.738Z,101931.50
2023-02-19T20:14:27.544Z,101938.84
2023-02-19T20:16:55.686Z,101945.38
2023-02-19T20:19:23.930Z,101948.13
2023-02-19T20:21:53.701Z,101953.25
2023-02-19T20:24:25.965Z,101952.72
2023-02-19T20:27:02.083Z,101945.69
2023-02-19T20:29:33.186Z,101954.56
2023-02-19T20:32:03.689Z,101954.38
2023-02-19T20:34:31.590Z,101953.63
2023-02-19T20:36:59.729Z,101951.03
2023-02-19T20:39:29.257Z,101953.75
2023-02-19T20:41:58.487Z,101946.78
2023-02-19T20:44:28.565Z,101957.44
2023-02-19T20:46:58.190Z,101956.47
2023-02-19T20:49:29.566Z,101961.94
2023-02-19T20:51:59.885Z,101965.47
2023-02-19T20:54:30.809Z,101979.88
2023-02-19T20:57:02.219Z,101976.56
2023-02-19T20:59:35.091Z,101986.06
2023-02-19T21:02:14.723Z,101988.09
2023-02-19T21:04:42.255Z,101971.47
2023-02-19T21:07:09.319Z,101985.59
2023-02-19T21:09:36.684Z,101999.06
2023-02-19T21:12:04.160Z,101995.66
2023-02-19T21:14:31.732Z,101995.66
2023-02-19T21:16:58.787Z,101988.59
2023-02-19T21:19:25.826Z,101997.41
2023-02-19T21:21:52.868Z,102005.41
2023-02-19T21:24:19.973Z,101995.09
2023-02-19T21:26:47.158Z,102003.78
2023-02-19T21:29:21.422Z,102005.69
2023-02-19T21:31:56.778Z,102002.59
2023-02-19T21:34:30.213Z,101984.78
2023-02-19T21:36:57.777Z,101989.06
2023-02-19T21:39:27.977Z,101998.06
2023-02-19T21:41:55.113Z,102002.47
2023-02-19T21:44:22.262Z,101997.06
2023-02-19T21:46:49.336Z,101994.75
2023-02-19T21:49:17.478Z,101999.16
2023-02-19T21:51:47.984Z,102005.56
2023-02-19T21:54:24.667Z,101998.47
2023-02-19T21:56:53.618Z,102009.09
2023-02-19T21:59:22.631Z,102008.13
2023-02-19T22:01:51.188Z,102010.19
2023-02-19T22:04:21.806Z,102007.50
2023-02-19T22:06:48.832Z,102013.63
2023-02-19T22:09:16.232Z,102012.88
2023-02-19T22:11:43.665Z,102004.75
2023-02-19T22:14:10.795Z,102005.69
2023-02-19T22:16:37.881Z,102004.97
2023-02-19T22:19:05.196Z,102008.56
2023-02-19T22:21:33.194Z,102004.22
2023-02-19T22:24:02.293Z,101998.00
2023-02-19T22:26:34.232Z,102002.56
2023-02-19T22:29:08.066Z,102016.84
2023-02-19T22:31:35.861Z,102022.97
2023-02-19T22:34:03.826Z,102015.19
2023-02-19T22:36:39.880Z,102010.88
2023-02-19T22:39:16.459Z,102014.38
2023-02-19T22:41:43.725Z,102019.75
2023-02-19T22:44:11.504Z,102018.88
2023-02-19T22:46:38.639Z,102020.69
2023-02-19T22:49:07.344Z,102018.00
2023-02-19T22:51:35.745Z,102015.25
2023-02-19T22:54:02.843Z,102016.19
2023-02-19T22:56:30.070Z,102030.59
2023-02-19T22:58:59.007Z,102026.41
2023-02-19T23:01:26.603Z,102035.44
2023-02-19T23:03:59.104Z,102039.25
2023-02-19T23:06:32.772Z,102030.53
2023-02-19T23:09:06.257Z,102038.56
2023-02-19T23:11:37.318Z,102041.38
2023-02-19T23:14:05.691Z,102040.63
2023-02-19T23:16:36.152Z,102037.19
2023-02-19T23:19:11.510Z,102048.00
2023-02-19T23:21:43.893Z,102041.06
2023-02-19T23:24:12.594Z,102052.75
2023-02-19T23:26:51.180Z,102060.84
2023-02-19T23:29:22.774Z,102060.13
2023-02-19T23:31:51.030Z,102055.78
2023-02-19T23:34:19.550Z,102046.94
2023-02-19T23:36:50.037Z,102055.06
2023-02-19T23:39:20.986Z,102064.97
2023-02-19T23:41:54.724Z,102073.97
2023-02-19T23:44:24.359Z,102075.84
2023-02-19T23:46:52.550Z,102056.34
2023-02-19T23:49:20.564Z,102069.75
2023-02-19T23:51:47.696Z,102060.91
2023-02-19T23:54:15.230Z,102063.66
2023-02-19T23:56:42.284Z,102073.59
2023-02-19T23:59:09.312Z,102078.06
